Time;durP1;ratioP1;P1;durP2;ratioP2;P2;SDS_P1;SDS_P2;PMS_P1;PMS_P2;Temp;Humidity;BMP_temperature;BMP_pressure;BME280_temperature;BME280_humidity;BME280_pressure;Samples;Min_cycle;Max_cycle;Signal;HPM_P1;HPM_P2
2021/11/09 00:01:51;;;;;;;4.82;2.55;;;18.20;58.70;;;;;;4981983;28;20059;-54
2021/11/09 00:04:16;;;;;;;3.63;2.20;;;18.30;58.80;;;;;;4959486;28;20116;-55
2021/11/09 00:06:46;;;;;;;6.63;2.92;;;18.30;58.70;;;;;;4954641;28;20441;-50
2021/11/09 00:09:16;;;;;;;3.10;1.95;;;18.30;58.70;;;;;;4958126;28;20038;-55
2021/11/09 00:11:41;;;;;;;4.05;2.30;;;18.30;58.60;;;;;;4959302;28;20042;-53
2021/11/09 00:14:07;;;;;;;3.50;2.45;;;18.30;58.50;;;;;;4954576;28;20035;-54
2021/11/09 00:16:33;;;;;;;3.88;2.40;;;18.30;58.50;;;;;;4966491;28;20420;-54
2021/11/09 00:18:59;;;;;;;5.30;2.70;;;18.40;58.50;;;;;;4958567;28;20492;-52
2021/11/09 00:21:24;;;;;;;3.65;2.08;;;18.40;58.50;;;;;;4965749;28;20053;-55
2021/11/09 00:23:50;;;;;;;5.10;2.55;;;18.30;58.40;;;;;;4963884;28;20707;-56
2021/11/09 00:26:16;;;;;;;2.13;1.65;;;18.30;58.40;;;;;;4955608;28;20036;-56
2021/11/09 00:28:41;;;;;;;4.03;2.17;;;18.40;58.40;;;;;;4962558;28;20660;-56
2021/11/09 00:31:07;;;;;;;4.15;2.38;;;18.40;58.30;;;;;;4974570;28;20118;-53
2021/11/09 00:33:32;;;;;;;4.30;1.95;;;18.40;58.30;;;;;;4975981;28;20027;-52
2021/11/09 00:35:58;;;;;;;2.65;2.10;;;18.30;58.30;;;;;;4963548;23;20047;-58
2021/11/09 00:38:23;;;;;;;3.88;2.35;;;18.30;58.30;;;;;;4941884;28;20035;-57
2021/11/09 00:40:49;;;;;;;3.72;2.33;;;18.30;58.30;;;;;;4942807;28;20551;-51
2021/11/09 00:43:16;;;;;;;3.63;2.10;;;18.30;58.30;;;;;;4936778;28;20407;-58
2021/11/09 00:45:41;;;;;;;4.55;2.78;;;18.30;58.30;;;;;;4943388;28;20507;-58
2021/11/09 00:48:07;;;;;;;2.63;2.10;;;18.30;58.30;;;;;;4953134;28;20054;-50
2021/11/09 00:50:33;;;;;;;3.47;1.58;;;18.30;58.30;;;;;;4951672;28;20028;-58
2021/11/09 00:52:58;;;;;;;2.97;2.17;;;18.30;58.40;;;;;;4950843;28;20043;-58
2021/11/09 00:55:24;;;;;;;3.85;2.15;;;18.20;58.30;;;;;;4946569;28;20028;-56
2021/11/09 00:57:50;;;;;;;3.50;1.80;;;18.20;58.30;;;;;;4952459;28;20038;-60
2021/11/09 01:00:22;;;;;;;2.67;1.70;;;18.20;58.40;;;;;;4953772;28;20554;-51
2021/11/09 01:02:47;;;;;;;3.35;1.92;;;18.20;58.50;;;;;;4957378;28;20035;-58
2021/11/09 01:05:13;;;;;;;2.78;1.83;;;18.20;58.60;;;;;;4957611;28;20110;-57
2021/11/09 01:07:39;;;;;;;2.72;1.65;;;18.20;58.60;;;;;;4941058;28;20027;-54
2021/11/09 01:10:05;;;;;;;1.80;1.60;;;18.10;58.60;;;;;;4955507;28;20030;-56
2021/11/09 01:12:31;;;;;;;2.15;1.95;;;18.10;58.70;;;;;;4946968;28;20027;-57
2021/11/09 01:14:57;;;;;;;3.22;1.92;;;18.10;58.70;;;;;;4959577;28;20477;-57
2021/11/09 01:17:23;;;;;;;3.60;2.47;;;18.10;58.70;;;;;;4955859;28;20050;-56
2021/11/09 01:19:48;;;;;;;2.50;1.42;;;18.00;58.80;;;;;;4951716;28;20039;-53
2021/11/09 01:22:14;;;;;;;3.22;1.95;;;18.00;59.50;;;;;;4956080;28;20031;-57
2021/11/09 01:24:39;;;;;;;3.55;1.90;;;18.00;58.90;;;;;;4955805;28;20039;-54
2021/11/09 01:27:06;;;;;;;4.13;1.77;;;18.00;58.90;;;;;;4955877;28;20486;-54
2021/11/09 01:29:31;;;;;;;4.90;2.10;;;18.00;58.90;;;;;;4959966;28;20477;-55
2021/11/09 01:31:58;;;;;;;2.45;1.70;;;18.00;58.90;;;;;;4948488;28;20058;-56
2021/11/09 01:34:24;;;;;;;2.70;1.75;;;18.00;59.60;;;;;;4948543;28;20059;-52
2021/11/09 01:36:49;;;;;;;3.92;1.75;;;18.00;59.10;;;;;;4952981;28;20046;-53
2021/11/09 01:39:15;;;;;;;2.83;1.58;;;17.90;59.10;;;;;;4955988;28;20051;-56
2021/11/09 01:41:40;;;;;;;3.03;1.70;;;18.00;59.90;;;;;;4947161;28;20031;-53
2021/11/09 01:44:06;;;;;;;2.47;1.60;;;17.90;59.30;;;;;;4956998;28;20058;-52
2021/11/09 01:46:32;;;;;;;2.58;1.50;;;17.90;59.40;;;;;;4954260;28;20031;-56
2021/11/09 01:48:57;;;;;;;3.58;1.77;;;17.90;59.40;;;;;;4946562;28;20107;-54
2021/11/09 01:51:23;;;;;;;2.08;1.55;;;17.90;59.40;;;;;;4944912;28;20039;-54
2021/11/09 01:53:50;;;;;;;3.35;1.67;;;17.90;59.50;;;;;;4950982;28;20040;-55
2021/11/09 01:56:18;;;;;;;2.00;1.48;;;17.90;59.50;;;;;;4952161;28;20035;-52
2021/11/09 01:58:43;;;;;;;4.82;1.80;;;17.90;59.60;;;;;;4949642;28;20198;-55
2021/11/09 02:01:11;;;;;;;2.88;1.70;;;17.90;59.60;;;;;;4959528;28;20077;-52
2021/11/09 02:03:38;;;;;;;4.32;1.95;;;17.90;59.50;;;;;;4961472;28;20035;-52
2021/11/09 02:06:04;;;;;;;2.90;1.85;;;17.90;59.40;;;;;;4959376;28;20090;-54
2021/11/09 02:08:29;;;;;;;3.20;1.83;;;17.90;59.40;;;;;;4952396;28;20031;-52
2021/11/09 02:10:55;;;;;;;3.03;1.88;;;17.90;59.30;;;;;;4954087;28;20054;-57
2021/11/09 02:13:22;;;;;;;3.55;1.60;;;17.90;59.30;;;;;;4954972;28;20122;-52
2021/11/09 02:15:47;;;;;;;2.97;1.58;;;18.00;59.30;;;;;;4953424;28;20296;-54
2021/11/09 02:18:13;;;;;;;2.65;1.73;;;18.00;59.30;;;;;;4945893;28;20289;-56
2021/11/09 02:20:39;;;;;;;3.65;1.80;;;17.90;59.20;;;;;;4955242;28;20026;-54
2021/11/09 02:23:05;;;;;;;2.53;1.60;;;18.00;59.20;;;;;;4958930;28;20040;-56
2021/11/09 02:25:31;;;;;;;2.28;1.65;;;18.00;59.10;;;;;;4950432;28;20030;-56
2021/11/09 02:27:57;;;;;;;3.15;1.58;;;18.00;59.10;;;;;;4951637;28;20081;-53
2021/11/09 02:30:24;;;;;;;2.75;1.45;;;18.10;59.00;;;;;;4950470;28;20693;-57
2021/11/09 02:32:50;;;;;;;3.53;1.65;;;18.10;59.00;;;;;;4955525;28;20045;-56
2021/11/09 02:35:16;;;;;;;3.17;1.55;;;18.10;58.90;;;;;;4950164;28;20046;-58
2021/11/09 02:37:42;;;;;;;2.15;1.67;;;18.10;58.80;;;;;;4953588;28;20724;-57
2021/11/09 02:40:08;;;;;;;2.70;1.73;;;18.10;58.70;;;;;;4952551;28;20039;-54
2021/11/09 02:42:35;;;;;;;2.10;1.58;;;18.10;58.70;;;;;;4950087;28;20516;-57
2021/11/09 02:45:07;;;;;;;2.72;1.65;;;18.20;58.60;;;;;;4944845;28;20047;-51
2021/11/09 02:47:57;;;;;;;3.53;1.80;;;18.20;58.60;;;;;;4943868;28;20035;-54
2021/11/09 02:50:26;;;;;;;2.00;1.48;;;18.20;58.40;;;;;;4951186;28;20527;-53
2021/11/09 02:52:57;;;;;;;1.88;1.60;;;18.30;58.40;;;;;;4945912;28;20042;-54
2021/11/09 02:55:31;;;;;;;2.83;1.77;;;18.20;58.30;;;;;;4941839;28;20047;-56
2021/11/09 02:58:12;;;;;;;1.98;1.45;;;18.30;58.30;;;;;;4946390;28;20102;-55
2021/11/09 03:03:36;;;;;;;2.15;1.40;;;18.30;58.20;;;;;;4942117;28;20552;-54
2021/11/09 03:06:16;;;;;;;2.20;1.60;;;18.30;58.20;;;;;;4943062;28;20042;-53
2021/11/09 03:08:46;;;;;;;1.85;1.30;;;18.30;58.20;;;;;;4948436;28;20125;-56
2021/11/09 03:11:12;;;;;;;2.35;1.60;;;18.30;58.20;;;;;;4955334;28;20089;-55
2021/11/09 03:13:39;;;;;;;3.30;1.80;;;18.30;58.20;;;;;;4947958;28;20463;-55
2021/11/09 03:16:09;;;;;;;1.80;1.58;;;18.30;58.10;;;;;;4951859;28;20034;-56
2021/11/09 03:18:59;;;;;;;2.25;1.40;;;18.30;58.20;;;;;;4949855;28;20039;-54
2021/11/09 03:40:37;;;;;;;2.60;1.55;;;18.20;58.20;;;;;;4961435;28;20034;-53
2021/11/09 03:45:49;;;;;;;2.90;1.50;;;18.20;58.20;;;;;;4962316;28;20553;-57
2021/11/09 03:48:16;;;;;;;2.97;1.50;;;18.20;58.30;;;;;;4947798;28;20123;-53
2021/11/09 03:50:42;;;;;;;3.22;1.60;;;18.20;58.30;;;;;;4960671;28;20059;-55
2021/11/09 03:53:15;;;;;;;3.58;1.45;;;18.20;58.40;;;;;;4952462;28;20035;-56
2021/11/09 03:58:33;;;;;;;1.48;1.23;;;18.10;58.70;;;;;;4958197;28;20117;-53
2021/11/09 04:01:03;;;;;;;2.60;1.40;;;18.10;58.70;;;;;;4953601;28;20093;-54
2021/11/09 04:06:00;;;;;;;2.13;1.58;;;18.00;58.90;;;;;;4944518;28;20043;-58
2021/11/09 04:11:22;;;;;;;3.90;1.52;;;18.00;58.90;;;;;;4946373;28;20640;-56
2021/11/09 04:24:30;;;;;;;2.53;1.55;;;18.00;58.90;;;;;;4954193;28;20499;-55
2021/11/09 04:30:03;;;;;;;1.90;1.30;;;18.00;58.90;;;;;;4951160;28;20428;-55
2021/11/09 04:33:02;;;;;;;2.38;1.50;;;18.00;58.80;;;;;;4952344;28;20055;-54
2021/11/09 04:35:53;;;;;;;2.72;1.30;;;18.00;58.80;;;;;;4964720;28;20042;-54
2021/11/09 04:39:08;;;;;;;3.58;1.60;;;18.00;59.40;;;;;;4960144;28;20034;-57
2021/11/09 04:42:14;;;;;;;2.33;1.15;;;18.00;58.80;;;;;;4960942;28;20038;-54
2021/11/09 05:03:06;;;;;;;1.63;1.27;;;18.10;58.50;;;;;;4958715;28;20042;-57
2021/11/09 05:10:45;;;;;;;1.48;1.33;;;18.20;58.20;;;;;;4950001;28;20524;-56
2021/11/09 05:13:10;;;;;;;1.65;1.15;;;18.20;58.10;;;;;;4957984;28;20053;-56
2021/11/09 05:15:36;;;;;;;2.13;1.30;;;18.20;58.00;;;;;;4953924;28;20022;-57
2021/11/09 05:18:01;;;;;;;1.83;1.13;;;18.20;58.00;;;;;;4953558;28;20811;-54
2021/11/09 05:20:27;;;;;;;1.98;1.27;;;18.20;58.00;;;;;;4945746;28;20371;-54
2021/11/09 05:22:53;;;;;;;4.20;1.35;;;18.20;58.00;;;;;;4949575;28;20339;-63
2021/11/09 05:25:19;;;;;;;2.25;1.90;;;18.20;58.00;;;;;;4960346;28;20098;-56
2021/11/09 05:27:46;;;;;;;1.63;1.23;;;18.20;57.90;;;;;;4955604;28;20081;-54
2021/11/09 05:30:12;;;;;;;2.30;1.48;;;18.20;57.80;;;;;;4960140;28;20031;-54
2021/11/09 05:32:38;;;;;;;2.15;1.20;;;18.20;57.80;;;;;;4952436;28;20082;-57
2021/11/09 05:35:04;;;;;;;1.42;1.08;;;18.20;57.80;;;;;;4948819;28;20048;-56
2021/11/09 05:37:35;;;;;;;2.30;1.27;;;18.30;57.80;;;;;;4951203;28;20027;-50
2021/11/09 05:40:04;;;;;;;2.50;1.40;;;18.30;57.80;;;;;;4955249;28;20763;-53
2021/11/09 05:42:30;;;;;;;2.35;1.20;;;18.30;57.70;;;;;;4946479;28;20035;-56
2021/11/09 05:44:56;;;;;;;1.42;1.30;;;18.30;57.70;;;;;;4958777;28;20508;-55
2021/11/09 05:47:21;;;;;;;2.10;1.20;;;18.30;57.70;;;;;;4964414;28;20031;-51
2021/11/09 05:49:47;;;;;;;1.30;1.17;;;18.30;58.30;;;;;;4963885;28;20092;-55
2021/11/09 05:52:12;;;;;;;2.28;1.30;;;18.30;57.70;;;;;;4955139;28;20675;-57
2021/11/09 05:54:38;;;;;;;2.78;1.23;;;18.20;57.60;;;;;;4951490;28;20119;-55
2021/11/09 05:57:04;;;;;;;2.30;1.30;;;18.30;57.60;;;;;;4948816;28;20041;-54
2021/11/09 05:59:29;;;;;;;3.08;1.58;;;18.30;57.60;;;;;;4961778;28;20027;-51
2021/11/09 06:01:55;;;;;;;9.68;4.90;;;18.20;57.60;;;;;;4964009;28;20170;-56
2021/11/09 06:04:20;;;;;;;15.43;7.43;;;18.30;57.60;;;;;;4959613;28;20027;-57
2021/11/09 06:06:46;;;;;;;18.23;8.27;;;18.30;57.70;;;;;;4954291;28;20708;-54
2021/11/09 06:09:11;;;;;;;14.88;7.57;;;18.30;57.90;;;;;;4959577;28;20038;-57
2021/11/09 06:11:37;;;;;;;12.15;6.05;;;18.20;57.90;;;;;;4950140;28;20031;-57
2021/11/09 06:14:03;;;;;;;13.27;5.85;;;18.20;57.80;;;;;;4956630;28;20066;-57
2021/11/09 06:16:28;;;;;;;15.25;6.38;;;18.20;57.80;;;;;;4957042;28;20027;-56
2021/11/09 06:18:54;;;;;;;19.65;6.05;;;18.20;57.80;;;;;;4956659;28;20042;-57
2021/11/09 06:21:19;;;;;;;13.38;5.38;;;18.20;57.80;;;;;;4953037;28;20417;-55
2021/11/09 06:23:45;;;;;;;13.98;5.32;;;18.20;57.80;;;;;;4948735;28;20039;-55
2021/11/09 06:26:10;;;;;;;9.65;4.75;;;18.20;57.80;;;;;;4945611;28;20062;-51
2021/11/09 06:28:37;;;;;;;9.27;4.43;;;18.20;57.90;;;;;;4951924;28;20194;-53
2021/11/09 06:31:03;;;;;;;17.52;5.25;;;18.20;57.90;;;;;;4937126;28;20043;-53
2021/11/09 06:33:30;;;;;;;12.43;5.20;;;18.20;57.90;;;;;;4948679;28;20130;-55
2021/11/09 06:35:56;;;;;;;20.15;8.80;;;18.20;58.10;;;;;;4959794;23;20055;-51
2021/11/09 06:38:22;;;;;;;20.10;6.85;;;18.20;58.30;;;;;;4951865;28;20035;-49
2021/11/09 06:40:47;;;;;;;13.90;7.13;;;18.20;58.20;;;;;;4950541;28;20130;-51
2021/11/09 06:43:13;;;;;;;13.40;5.45;;;18.20;58.00;;;;;;4945191;28;20039;-55
2021/11/09 06:45:38;;;;;;;15.05;5.47;;;18.20;58.00;;;;;;4962590;28;20046;-53
2021/11/09 06:48:05;;;;;;;11.98;5.43;;;18.20;57.80;;;;;;4957342;28;20405;-55
2021/11/09 06:50:30;;;;;;;11.00;5.30;;;18.10;57.50;;;;;;4954756;28;20423;-51
2021/11/09 06:52:57;;;;;;;11.93;5.30;;;18.10;57.30;;;;;;4952172;28;20350;-53
2021/11/09 06:55:22;;;;;;;8.13;4.90;;;18.10;57.10;;;;;;4953930;28;20042;-53
2021/11/09 06:57:48;;;;;;;9.18;5.00;;;18.10;56.70;;;;;;4945646;28;20039;-50
2021/11/09 07:00:15;;;;;;;9.88;4.82;;;18.10;56.50;;;;;;4941635;28;20039;-53
2021/11/09 07:02:40;;;;;;;8.75;4.50;;;18.10;56.20;;;;;;4945186;28;20027;-53
2021/11/09 07:05:06;;;;;;;8.02;4.25;;;18.00;56.10;;;;;;4951031;28;20034;-53
2021/11/09 07:07:32;;;;;;;8.93;5.13;;;18.00;56.00;;;;;;4946304;28;20404;-53
2021/11/09 07:09:57;;;;;;;10.63;4.93;;;18.00;55.70;;;;;;4945817;28;20066;-53
2021/11/09 07:12:23;;;;;;;10.05;5.15;;;18.00;55.00;;;;;;4952617;28;20069;-58
2021/11/09 07:14:50;;;;;;;10.38;4.45;;;18.00;56.40;;;;;;4949074;28;20493;-59
2021/11/09 07:17:15;;;;;;;7.82;3.92;;;18.00;57.00;;;;;;4938969;28;20035;-55
2021/11/09 07:19:47;;;;;;;7.50;3.83;;;18.00;58.00;;;;;;4960001;28;20086;-53
2021/11/09 07:22:12;;;;;;;7.72;3.92;;;18.10;58.30;;;;;;4947555;28;20038;-52
2021/11/09 07:24:38;;;;;;;6.53;3.50;;;18.10;55.40;;;;;;4956970;28;20503;-57
2021/11/09 07:27:03;;;;;;;4.97;3.17;;;18.10;54.70;;;;;;4950820;28;20035;-55
2021/11/09 07:29:29;;;;;;;14.55;3.50;;;18.00;54.70;;;;;;4951246;28;20034;-53
2021/11/09 07:31:56;;;;;;;4.63;2.80;;;18.00;54.60;;;;;;4947912;28;20521;-56
2021/11/09 07:34:21;;;;;;;5.70;2.97;;;17.90;54.50;;;;;;4954242;28;20039;-53
2021/11/09 07:36:47;;;;;;;5.10;2.80;;;17.90;54.30;;;;;;4939876;28;20535;-52
2021/11/09 07:39:13;;;;;;;6.75;2.65;;;17.90;54.50;;;;;;4949464;28;21018;-53
2021/11/09 07:41:41;;;;;;;5.40;2.88;;;17.90;54.60;;;;;;4945386;28;20228;-51
2021/11/09 07:44:08;;;;;;;5.45;2.58;;;17.90;54.80;;;;;;4952508;28;20093;-56
2021/11/09 07:46:34;;;;;;;4.30;2.60;;;17.90;54.90;;;;;;4948278;28;20034;-51
2021/11/09 07:49:00;;;;;;;6.88;3.15;;;17.90;55.00;;;;;;4951649;28;20058;-53
2021/11/09 07:51:26;;;;;;;5.53;2.63;;;17.90;55.10;;;;;;4943358;28;20059;-52
2021/11/09 07:53:52;;;;;;;6.75;2.60;;;17.90;55.20;;;;;;4941687;28;20127;-50
2021/11/09 07:56:20;;;;;;;6.53;2.85;;;17.90;55.30;;;;;;4944490;28;20655;-52
2021/11/09 07:58:52;;;;;;;8.23;2.35;;;17.80;55.30;;;;;;4956021;28;20060;-51
2021/11/09 08:01:21;;;;;;;9.13;2.75;;;17.80;55.50;;;;;;4951653;28;20042;-55
2021/11/09 08:11:44;;;;;;;6.35;2.20;;;17.80;56.00;;;;;;4962314;28;20027;-56
2021/11/09 08:14:09;;;;;;;7.25;2.30;;;17.80;56.00;;;;;;4951478;28;20035;-55
2021/11/09 08:16:35;;;;;;;5.45;2.20;;;17.80;56.00;;;;;;4963497;28;20061;-57
2021/11/09 08:19:01;;;;;;;6.63;2.55;;;17.80;56.00;;;;;;4957126;28;20093;-52
2021/11/09 08:21:27;;;;;;;3.95;2.10;;;17.90;56.00;;;;;;4952033;28;20040;-56
2021/11/09 08:23:52;;;;;;;5.28;2.22;;;17.90;56.00;;;;;;4958562;28;20039;-57
2021/11/09 08:26:19;;;;;;;5.25;2.67;;;17.90;56.00;;;;;;4959883;28;20031;-53
2021/11/09 08:28:45;;;;;;;5.63;2.33;;;17.90;56.00;;;;;;4963621;28;20118;-55
2021/11/09 08:31:15;;;;;;;4.82;1.90;;;17.90;55.90;;;;;;4946597;28;20114;-51
2021/11/09 08:33:41;;;;;;;2.55;1.70;;;18.00;55.90;;;;;;4960555;28;20510;-54
2021/11/09 08:36:10;;;;;;;4.30;2.38;;;18.00;55.90;;;;;;4956188;28;20125;-54
2021/11/09 08:38:36;;;;;;;5.75;1.77;;;18.00;55.90;;;;;;4956443;28;20027;-54
2021/11/09 08:41:02;;;;;;;3.70;1.92;;;18.00;55.90;;;;;;4953534;28;20027;-50
2021/11/09 08:43:32;;;;;;;3.95;2.30;;;18.00;55.90;;;;;;4953931;28;20512;-54
2021/11/09 08:45:58;;;;;;;2.90;1.80;;;18.00;55.90;;;;;;4956854;28;20090;-51
2021/11/09 08:48:28;;;;;;;3.55;1.67;;;18.00;55.90;;;;;;4952774;28;20027;-54
2021/11/09 08:50:54;;;;;;;3.35;2.20;;;18.10;56.00;;;;;;4976591;28;20452;-50
2021/11/09 08:53:28;;;;;;;4.18;2.15;;;18.10;56.00;;;;;;4967026;28;20043;-56
2021/11/09 08:56:17;;;;;;;4.80;2.05;;;18.10;56.10;;;;;;4973923;28;20058;-56
2021/11/09 09:04:11;;;;;;;2.58;1.60;;;18.10;56.10;;;;;;4965081;28;20033;-57
2021/11/09 09:04:19;;;;;;;3.38;1.70;;;18.10;56.10;;;;;;4963449;28;20023;-51
2021/11/09 09:06:53;;;;;;;3.55;1.42;;;18.10;56.10;;;;;;4964871;28;20043;-50
2021/11/09 09:09:19;;;;;;;4.38;1.80;;;18.10;56.20;;;;;;4963047;28;20561;-54
2021/11/09 09:11:46;;;;;;;3.70;1.52;;;18.10;56.20;;;;;;4964506;28;20070;-54
2021/11/09 09:14:11;;;;;;;3.40;1.70;;;18.10;56.30;;;;;;4962425;28;20034;-52
2021/11/09 09:16:38;;;;;;;3.25;1.60;;;18.10;56.30;;;;;;4964497;28;20396;-50
2021/11/09 09:19:04;;;;;;;3.58;1.83;;;18.10;56.30;;;;;;4963019;28;20031;-52
2021/11/09 09:21:41;;;;;;;4.53;2.13;;;18.10;56.30;;;;;;4964181;28;20125;-55
2021/11/09 09:53:54;;;;;;;2.28;1.35;;;18.10;56.50;;;;;;4950575;28;20046;-55
2021/11/09 09:56:24;;;;;;;3.28;2.00;;;18.20;56.50;;;;;;4949085;28;20076;-54
2021/11/09 09:58:49;;;;;;;3.05;1.52;;;18.20;56.60;;;;;;4947688;28;20595;-51
2021/11/09 10:01:17;;;;;;;3.13;1.50;;;18.20;56.60;;;;;;4952837;28;20079;-54
2021/11/09 10:03:43;;;;;;;5.20;1.80;;;18.20;56.60;;;;;;4950311;28;20035;-56
2021/11/09 10:06:08;;;;;;;3.80;1.85;;;18.10;56.60;;;;;;4949744;28;20030;-54
2021/11/09 10:08:47;;;;;;;2.22;1.33;;;18.10;56.60;;;;;;4954176;28;20046;-53
2021/11/09 10:11:48;;;;;;;2.58;1.83;;;18.10;56.70;;;;;;4955108;28;20066;-54
2021/11/09 10:14:35;;;;;;;1.92;1.38;;;18.20;56.80;;;;;;4910810;29;20036;-54
2021/11/09 10:17:17;;;;;;;2.58;1.38;;;18.20;56.80;;;;;;4946788;28;20038;-56
2021/11/09 10:19:42;;;;;;;2.05;1.80;;;18.20;56.80;;;;;;4948210;28;20055;-54
2021/11/09 10:22:26;;;;;;;2.42;1.70;;;18.10;56.70;;;;;;4953550;28;20031;-54
2021/11/09 10:25:00;;;;;;;2.33;1.63;;;18.20;56.80;;;;;;4956854;28;20401;-53
2021/11/09 10:27:27;;;;;;;2.15;1.63;;;18.10;56.80;;;;;;4936254;28;20517;-50
2021/11/09 10:29:54;;;;;;;2.70;1.48;;;18.10;56.80;;;;;;4946785;28;20609;-57
2021/11/09 10:32:25;;;;;;;2.00;1.52;;;18.10;56.90;;;;;;4954854;28;20039;-52
2021/11/09 10:34:52;;;;;;;2.53;1.63;;;18.10;56.90;;;;;;4945345;28;20039;-52
2021/11/09 10:37:29;;;;;;;2.30;1.90;;;18.10;56.90;;;;;;4943767;28;20686;-55
2021/11/09 10:40:00;;;;;;;2.03;1.30;;;18.10;57.00;;;;;;4952860;28;20030;-54
2021/11/09 10:42:27;;;;;;;3.47;1.80;;;18.10;57.00;;;;;;4954066;28;20058;-53
2021/11/09 10:44:56;;;;;;;2.45;1.23;;;18.10;57.00;;;;;;4961644;28;20058;-56
2021/11/09 10:47:27;;;;;;;2.47;1.50;;;18.00;57.00;;;;;;4952922;28;20042;-53
2021/11/09 10:50:06;;;;;;;3.08;1.55;;;18.10;57.10;;;;;;4940120;28;20497;-56
2021/11/09 10:52:34;;;;;;;2.83;1.35;;;18.00;57.10;;;;;;4966425;28;20038;-54
2021/11/09 11:03:18;;;;;;;1.88;1.58;;;18.00;57.20;;;;;;4979913;28;20026;-55
2021/11/09 11:06:22;;;;;;;2.15;1.20;;;18.00;57.20;;;;;;4979577;28;21191;-54
2021/11/09 11:08:49;;;;;;;1.92;1.13;;;18.00;57.30;;;;;;4981802;28;20034;-54
2021/11/09 11:11:45;;;;;;;2.45;1.20;;;18.00;57.20;;;;;;4980842;28;20113;-51
2021/11/09 11:14:12;;;;;;;2.20;1.38;;;18.00;57.30;;;;;;4980357;28;20080;-52
2021/11/09 11:16:47;;;;;;;1.70;1.50;;;18.00;57.30;;;;;;4979323;28;20058;-56
2021/11/09 11:19:22;;;;;;;2.10;1.30;;;18.00;57.30;;;;;;4981620;28;20050;-52
2021/11/09 11:21:48;;;;;;;3.70;1.05;;;18.00;57.40;;;;;;4975564;28;20109;-55
2021/11/09 11:24:14;;;;;;;2.15;1.30;;;18.00;57.50;;;;;;4980884;28;20035;-53
2021/11/09 11:26:42;;;;;;;2.72;1.60;;;18.00;57.50;;;;;;4996561;28;20026;-52
2021/11/09 11:29:07;;;;;;;1.45;1.20;;;18.00;57.60;;;;;;4981403;28;20395;-51
2021/11/09 11:31:33;;;;;;;1.42;1.23;;;17.90;58.10;;;;;;4980941;28;20034;-52
2021/11/09 11:33:59;;;;;;;2.15;1.58;;;18.00;57.60;;;;;;4980028;28;20443;-51
2021/11/09 11:36:25;;;;;;;1.67;1.00;;;18.00;57.60;;;;;;4980565;28;20052;-49
2021/11/09 11:38:53;;;;;;;2.45;1.30;;;18.00;57.70;;;;;;4979708;28;20034;-52
2021/11/09 11:41:20;;;;;;;1.50;1.27;;;18.00;57.60;;;;;;4965021;28;20602;-52
2021/11/09 11:43:46;;;;;;;1.30;1.20;;;18.00;57.60;;;;;;4971723;28;20589;-50
2021/11/09 11:46:38;;;;;;;2.13;1.42;;;18.00;57.70;;;;;;4979952;28;20027;-52
2021/11/09 11:49:09;;;;;;;2.20;1.40;;;18.00;57.60;;;;;;4965484;28;20023;-53
2021/11/09 11:51:37;;;;;;;2.28;1.20;;;18.00;57.60;;;;;;4972923;28;20042;-51
2021/11/09 11:54:02;;;;;;;2.10;1.30;;;18.00;57.60;;;;;;4963505;28;20492;-53
2021/11/09 11:56:43;;;;;;;1.63;1.30;;;18.00;57.60;;;;;;4969877;28;20093;-51
2021/11/09 11:59:24;;;;;;;1.45;0.95;;;18.00;57.60;;;;;;4954606;28;20038;-53
2021/11/09 12:01:50;;;;;;;1.20;1.10;;;18.00;57.60;;;;;;4966439;28;20030;-55
2021/11/09 12:04:54;;;;;;;1.58;1.08;;;18.00;57.60;;;;;;4959749;28;20032;-53
2021/11/09 12:07:22;;;;;;;1.58;1.02;;;18.00;57.60;;;;;;4955703;28;20121;-53
2021/11/09 12:09:51;;;;;;;1.45;1.00;;;18.00;57.60;;;;;;4968660;28;20456;-53
2021/11/09 12:12:19;;;;;;;1.00;0.90;;;18.00;57.60;;;;;;4961262;28;20090;-53
2021/11/09 12:14:56;;;;;;;2.50;1.20;;;18.10;57.60;;;;;;4970383;28;20710;-54
2021/11/09 12:17:40;;;;;;;2.78;1.30;;;18.10;57.60;;;;;;4959291;28;20026;-54
2021/11/09 12:20:10;;;;;;;2.58;0.95;;;18.10;57.60;;;;;;4967615;28;20032;-50
2021/11/09 12:22:44;;;;;;;3.05;1.40;;;18.10;57.60;;;;;;4966360;28;20038;-54
2021/11/09 12:25:34;;;;;;;2.28;1.33;;;18.10;57.60;;;;;;4989983;28;20033;-55
2021/11/09 12:28:00;;;;;;;1.55;1.08;;;18.10;57.60;;;;;;4973903;28;20034;-55
2021/11/09 12:30:35;;;;;;;1.88;1.08;;;18.10;57.60;;;;;;4960208;28;20026;-51
2021/11/09 12:33:05;;;;;;;1.00;0.88;;;18.10;57.60;;;;;;4972544;28;20054;-55
2021/11/09 12:35:34;;;;;;;1.65;1.05;;;18.10;57.60;;;;;;4947392;28;20034;-54
2021/11/09 12:38:01;;;;;;;1.45;1.00;;;18.10;57.60;;;;;;4956421;28;20039;-51
2021/11/09 12:40:48;;;;;;;1.52;1.20;;;18.10;57.60;;;;;;4944198;28;20082;-53
2021/11/09 12:43:30;;;;;;;1.35;0.90;;;18.10;57.60;;;;;;4949892;28;20058;-53
2021/11/09 12:46:27;;;;;;;1.40;1.08;;;18.10;57.60;;;;;;4946459;28;20031;-52
2021/11/09 12:49:16;;;;;;;1.45;0.80;;;18.10;57.60;;;;;;4949241;28;20135;-54
2021/11/09 12:51:44;;;;;;;1.10;0.90;;;18.10;57.60;;;;;;4945202;28;20058;-55
2021/11/09 12:54:30;;;;;;;1.48;1.02;;;18.10;57.60;;;;;;4950643;28;20042;-54
2021/11/09 12:57:00;;;;;;;;;;;18.20;57.60;;;;;;4959833;28;20031;-56
2021/11/09 13:09:36;;;;;;;1.60;1.00;;;18.20;57.60;;;;;;4952690;28;20035;-57
2021/11/09 13:12:10;;;;;;;1.20;0.73;;;18.20;57.60;;;;;;4962032;28;20047;-54
2021/11/09 13:14:43;;;;;;;0.68;0.68;;;18.20;57.60;;;;;;4957563;28;20142;-50
2021/11/09 13:17:14;;;;;;;1.25;0.75;;;18.20;57.60;;;;;;4950965;28;20629;-54
2021/11/09 13:19:42;;;;;;;2.00;1.02;;;18.20;57.60;;;;;;4951286;28;20034;-50
2021/11/09 13:22:13;;;;;;;1.05;0.95;;;18.20;57.60;;;;;;4959032;28;20037;-51
2021/11/09 13:24:41;;;;;;;2.33;1.00;;;18.20;57.60;;;;;;4954539;28;20035;-54
2021/11/09 13:27:08;;;;;;;1.23;0.80;;;18.20;57.60;;;;;;4946647;28;20759;-52
2021/11/09 13:29:42;;;;;;;0.90;0.70;;;18.20;57.60;;;;;;4948115;28;20087;-54
2021/11/09 13:32:09;;;;;;;1.60;1.15;;;18.20;57.60;;;;;;4952215;28;20035;-54
2021/11/09 13:34:34;;;;;;;2.15;1.00;;;18.20;57.60;;;;;;4947906;28;20733;-54
2021/11/09 13:37:00;;;;;;;1.52;0.90;;;18.20;57.60;;;;;;4946193;28;20039;-54
2021/11/09 13:39:25;;;;;;;2.00;0.93;;;18.20;57.70;;;;;;4953656;28;20030;-55
2021/11/09 13:41:51;;;;;;;1.05;0.82;;;18.20;57.60;;;;;;4947213;28;20027;-55
2021/11/09 13:44:16;;;;;;;1.38;0.80;;;18.20;57.60;;;;;;4956892;28;20606;-52
2021/11/09 13:46:43;;;;;;;1.02;0.75;;;18.20;57.60;;;;;;4945865;28;20035;-50
2021/11/09 13:49:12;;;;;;;1.20;0.70;;;18.20;57.80;;;;;;4958514;28;20488;-55
2021/11/09 13:51:41;;;;;;;1.00;0.70;;;18.20;57.60;;;;;;4948639;28;20595;-54
2021/11/09 13:54:15;;;;;;;1.10;0.80;;;18.20;57.60;;;;;;4947384;28;20043;-54
2021/11/09 13:56:46;;;;;;;1.10;0.70;;;18.20;57.70;;;;;;4935998;28;20031;-51
2021/11/09 13:59:12;;;;;;;1.63;1.00;;;18.20;57.70;;;;;;4946686;28;20035;-56
2021/11/09 14:04:40;;;;;;;1.40;0.90;;;18.20;57.70;;;;;;4952255;28;20032;-52
2021/11/09 14:15:27;;;;;;;1.15;0.90;;;18.20;57.80;;;;;;4978047;28;20038;-52
2021/11/09 14:17:53;;;;;;;1.02;0.70;;;18.20;57.80;;;;;;4956468;28;20046;-57
2021/11/09 14:20:24;;;;;;;1.23;0.88;;;18.20;57.90;;;;;;4962728;28;20039;-56
2021/11/09 14:23:03;;;;;;;0.73;0.70;;;18.20;57.90;;;;;;4961818;28;20030;-55
2021/11/09 14:25:29;;;;;;;1.10;0.70;;;18.20;57.90;;;;;;4961084;28;20030;-54
2021/11/09 14:27:54;;;;;;;1.15;0.90;;;18.20;57.80;;;;;;4962320;28;20039;-55
2021/11/09 14:30:22;;;;;;;1.40;0.65;;;18.20;57.90;;;;;;4959102;28;20031;-51
2021/11/09 14:32:47;;;;;;;0.90;0.80;;;18.20;57.90;;;;;;4961106;28;20042;-52
2021/11/09 14:38:02;;;;;;;1.00;0.70;;;18.20;57.90;;;;;;4961817;28;20045;-56
2021/11/09 14:40:33;;;;;;;0.52;0.52;;;18.20;57.90;;;;;;4954026;28;20051;-53
2021/11/09 14:43:25;;;;;;;1.20;0.60;;;18.20;57.90;;;;;;4961887;28;20031;-57
2021/11/09 14:48:23;;;;;;;1.08;0.90;;;18.20;57.90;;;;;;4962229;28;20034;-55
2021/11/09 14:51:05;;;;;;;1.55;1.10;;;18.20;57.90;;;;;;4961532;28;20034;-53
2021/11/09 14:53:34;;;;;;;1.45;1.10;;;18.20;57.90;;;;;;4961414;28;20190;-51
2021/11/09 14:56:05;;;;;;;0.95;0.60;;;18.20;57.90;;;;;;4961804;28;20051;-54
2021/11/09 14:58:36;;;;;;;1.20;0.82;;;18.20;57.90;;;;;;4960689;28;20508;-55
2021/11/09 15:01:19;;;;;;;1.30;0.80;;;18.20;57.90;;;;;;4944880;28;20042;-54
2021/11/09 15:03:52;;;;;;;1.50;1.02;;;18.20;57.90;;;;;;4958402;28;20194;-51
2021/11/09 15:06:26;;;;;;;1.20;0.70;;;18.20;58.00;;;;;;4961164;28;20165;-53
2021/11/09 15:25:39;;;;;;;1.13;0.70;;;18.20;58.00;;;;;;4961882;28;20166;-52
2021/11/09 15:28:13;;;;;;;0.98;0.65;;;18.10;57.90;;;;;;4961397;28;20124;-56
2021/11/09 15:30:47;;;;;;;1.15;0.90;;;18.20;58.00;;;;;;4940334;28;20038;-54
2021/11/09 15:33:34;;;;;;;1.77;0.75;;;18.20;58.00;;;;;;4961282;28;20027;-54
2021/11/09 15:38:31;;;;;;;1.17;0.90;;;18.10;58.50;;;;;;4961547;28;21898;-53
2021/11/09 15:40:56;;;;;;;1.38;0.82;;;18.10;57.90;;;;;;4961150;28;20034;-54
2021/11/09 15:43:22;;;;;;;1.50;0.95;;;18.10;58.00;;;;;;4960646;28;20022;-55